Time;durP1;ratioP1;P1;durP2;ratioP2;P2;SDS_P1;SDS_P2;PMS_P1;PMS_P2;Temp;Humidity;BMP_temperature;BMP_pressure;BME280_temperature;BME280_humidity;BME280_pressure;Samples;Min_cycle;Max_cycle;Signal;HPM_P1;HPM_P2
2023/01/19 00:02:14;;;;;;;4.18;3.08;;;20.80;58.50;;;;;;5051803;28;20258;-61
2023/01/19 00:05:03;;;;;;;3.40;3.03;;;20.80;58.50;;;;;;5052231;28;20206;-61
2023/01/19 00:07:51;;;;;;;4.43;3.50;;;20.80;58.40;;;;;;5051674;28;20261;-61
2023/01/19 00:10:41;;;;;;;6.60;3.80;;;20.80;58.50;;;;;;5052145;28;20279;-60
2023/01/19 00:13:29;;;;;;;2.42;2.22;;;20.80;58.40;;;;;;5052441;28;20198;-61
2023/01/19 00:16:20;;;;;;;3.42;2.75;;;20.60;62.10;;;;;;5051809;28;20237;-60
2023/01/19 00:19:08;;;;;;;2.97;2.78;;;20.80;58.40;;;;;;5051845;28;20193;-60
2023/01/19 00:21:56;;;;;;;5.63;3.40;;;20.80;58.40;;;;;;5052348;28;20292;-60
2023/01/19 00:24:44;;;;;;;3.80;3.28;;;20.80;58.30;;;;;;5052130;28;20276;-61
2023/01/19 00:27:34;;;;;;;3.92;3.22;;;20.80;58.30;;;;;;5052068;28;20248;-61
2023/01/19 00:30:22;;;;;;;3.33;2.90;;;20.90;58.30;;;;;;5051432;28;20193;-61
2023/01/19 00:33:12;;;;;;;3.85;2.97;;;20.90;58.20;;;;;;5051116;28;20784;-60
2023/01/19 00:36:00;;;;;;;4.15;3.58;;;20.90;58.20;;;;;;5052446;28;20201;-60
2023/01/19 00:38:48;;;;;;;4.20;3.15;;;21.00;58.10;;;;;;5052320;28;20605;-61
2023/01/19 00:44:44;;;;;;;3.10;2.85;;;20.90;58.00;;;;;;5051763;28;20212;-61
2023/01/19 00:47:32;;;;;;;3.75;3.40;;;20.90;58.00;;;;;;5052070;28;20225;-61
2023/01/19 00:50:20;;;;;;;4.35;3.28;;;20.90;58.00;;;;;;5050732;28;20315;-61
2023/01/19 00:53:08;;;;;;;3.35;3.03;;;20.90;58.00;;;;;;5051873;28;20294;-60
2023/01/19 00:55:56;;;;;;;3.45;3.00;;;20.90;57.90;;;;;;5051652;28;20310;-61
2023/01/19 00:58:45;;;;;;;3.67;3.35;;;20.80;57.80;;;;;;5051134;28;20302;-61
2023/01/19 01:01:34;;;;;;;4.00;2.95;;;20.80;57.80;;;;;;5050970;28;20263;-61
2023/01/19 01:04:33;;;;;;;3.40;3.10;;;20.80;57.90;;;;;;5051999;28;20722;-60
2023/01/19 01:07:21;;;;;;;3.10;2.83;;;20.70;58.00;;;;;;5051131;28;20768;-60
2023/01/19 01:10:11;;;;;;;3.20;2.90;;;20.70;58.10;;;;;;5051126;28;20277;-61
2023/01/19 01:13:00;;;;;;;5.75;3.00;;;20.80;58.70;;;;;;5050840;28;20611;-60
2023/01/19 01:16:08;;;;;;;3.78;2.40;;;20.90;58.20;;;;;;5050416;28;20197;-60
2023/01/19 01:18:58;;;;;;;4.05;2.63;;;20.80;58.00;;;;;;5051190;28;20367;-60
2023/01/19 01:21:46;;;;;;;3.08;2.58;;;20.80;58.00;;;;;;5051339;28;20221;-61
2023/01/19 01:24:34;;;;;;;3.17;2.85;;;20.80;58.00;;;;;;5052479;28;20284;-60
2023/01/19 01:27:22;;;;;;;3.13;2.38;;;20.80;58.00;;;;;;5051184;28;20836;-60
2023/01/19 01:30:12;;;;;;;2.50;2.30;;;20.80;57.80;;;;;;5050425;28;20251;-60
2023/01/19 01:33:01;;;;;;;3.42;2.97;;;20.80;57.80;;;;;;5052599;28;20282;-61
2023/01/19 01:35:51;;;;;;;2.75;2.30;;;20.80;57.80;;;;;;5054668;28;20299;-60
2023/01/19 01:38:39;;;;;;;2.70;2.50;;;20.80;57.80;;;;;;5054355;28;20205;-60
2023/01/19 01:41:27;;;;;;;4.28;2.70;;;20.80;57.80;;;;;;5054278;28;20772;-60
2023/01/19 01:44:51;;;;;;;3.40;2.78;;;20.80;57.70;;;;;;5054794;28;20806;-61
2023/01/19 01:47:43;;;;;;;2.97;2.55;;;20.70;57.70;;;;;;5054580;28;20226;-61
2023/01/19 01:50:34;;;;;;;2.58;2.38;;;20.80;57.80;;;;;;5054532;28;20233;-61
2023/01/19 01:53:23;;;;;;;3.42;2.85;;;20.80;57.80;;;;;;5054382;28;20308;-61
2023/01/19 01:56:15;;;;;;;2.95;2.65;;;20.50;61.40;;;;;;5054315;28;20209;-61
2023/01/19 01:59:06;;;;;;;4.03;2.60;;;20.80;57.80;;;;;;5054689;28;20302;-61
2023/01/19 02:05:05;;;;;;;2.40;2.20;;;20.80;57.50;;;;;;5054676;28;20202;-60
2023/01/19 02:14:12;;;;;;;2.80;2.60;;;20.90;57.50;;;;;;5053403;28;20303;-60
2023/01/19 02:17:00;;;;;;;3.92;2.58;;;20.90;57.50;;;;;;5053232;28;20351;-60
2023/01/19 02:19:48;;;;;;;2.70;2.50;;;20.90;57.60;;;;;;5054321;28;20697;-60
2023/01/19 02:22:44;;;;;;;3.67;2.50;;;20.90;57.40;;;;;;5054269;28;20253;-61
2023/01/19 02:25:34;;;;;;;3.78;2.47;;;20.90;57.30;;;;;;5054706;28;20343;-61
2023/01/19 02:28:24;;;;;;;3.00;2.70;;;20.80;57.40;;;;;;5054046;28;20217;-61
2023/01/19 02:31:13;;;;;;;3.33;2.60;;;20.80;57.40;;;;;;5047289;28;20605;-62
2023/01/19 02:34:02;;;;;;;5.03;2.70;;;20.80;57.30;;;;;;5053553;28;20256;-61
2023/01/19 02:36:54;;;;;;;6.00;3.33;;;20.80;57.30;;;;;;5053967;28;20236;-61
2023/01/19 02:39:45;;;;;;;2.60;2.40;;;20.80;57.20;;;;;;5054110;28;20688;-61
2023/01/19 02:42:37;;;;;;;2.28;2.17;;;20.80;57.10;;;;;;5053659;28;20355;-61
2023/01/19 02:45:25;;;;;;;2.78;2.58;;;20.80;57.10;;;;;;5052156;28;20348;-60
2023/01/19 02:48:14;;;;;;;2.25;1.85;;;20.80;57.20;;;;;;5054157;28;20283;-60
2023/01/19 02:51:09;;;;;;;2.65;2.45;;;20.80;57.20;;;;;;5053767;28;20208;-61
2023/01/19 02:54:12;;;;;;;2.75;2.47;;;20.70;57.20;;;;;;5054117;28;20635;-61
2023/01/19 02:57:24;;;;;;;2.42;2.13;;;20.70;57.20;;;;;;5054104;28;20252;-60
2023/01/19 03:00:28;;;;;;;3.92;2.22;;;20.70;57.30;;;;;;5053064;28;20651;-61
2023/01/19 03:03:27;;;;;;;3.08;2.50;;;20.70;57.30;;;;;;5053032;28;20560;-61
2023/01/19 03:06:25;;;;;;;2.35;2.15;;;20.40;60.40;;;;;;5054144;28;20209;-61
2023/01/19 03:09:21;;;;;;;3.22;2.70;;;20.70;57.20;;;;;;5053094;28;20247;-61
2023/01/19 03:12:15;;;;;;;2.65;2.42;;;20.70;57.30;;;;;;5054770;28;20732;-61
2023/01/19 03:15:13;;;;;;;4.40;3.05;;;20.70;57.10;;;;;;5052744;28;20235;-60
2023/01/19 03:18:08;;;;;;;2.40;2.20;;;20.70;57.10;;;;;;5053479;28;20359;-60
2023/01/19 03:20:59;;;;;;;3.75;2.70;;;20.60;57.00;;;;;;5052077;28;20286;-59
2023/01/19 03:23:49;;;;;;;2.72;2.53;;;20.70;57.20;;;;;;5052742;28;20193;-61
2023/01/19 03:26:42;;;;;;;2.65;2.45;;;20.60;57.70;;;;;;5052533;28;20232;-61
2023/01/19 03:29:33;;;;;;;2.70;2.50;;;20.70;57.10;;;;;;5052386;28;20669;-60
2023/01/19 03:32:29;;;;;;;2.85;2.65;;;20.70;57.10;;;;;;5053022;28;20872;-60
2023/01/19 03:35:22;;;;;;;3.08;2.88;;;20.70;56.90;;;;;;5052124;28;20332;-61
2023/01/19 03:38:15;;;;;;;3.90;2.50;;;20.70;56.90;;;;;;5052749;28;20225;-60
2023/01/19 03:41:08;;;;;;;3.85;2.80;;;20.70;56.80;;;;;;5052477;28;20689;-60
2023/01/19 03:43:57;;;;;;;3.15;2.80;;;20.80;57.00;;;;;;5052541;28;20275;-60
2023/01/19 03:46:47;;;;;;;4.65;2.55;;;20.70;57.00;;;;;;5052476;28;20225;-61
2023/01/19 03:49:37;;;;;;;4.03;3.30;;;20.70;57.00;;;;;;5052705;28;20284;-60
2023/01/19 03:52:32;;;;;;;3.15;2.85;;;20.70;56.90;;;;;;5052423;28;20200;-60
2023/01/19 03:55:20;;;;;;;3.15;2.88;;;20.60;56.80;;;;;;5051571;28;20343;-60
2023/01/19 03:58:09;;;;;;;3.67;3.05;;;20.60;56.80;;;;;;5052289;28;20308;-61
2023/01/19 04:00:57;;;;;;;3.03;2.80;;;20.60;56.90;;;;;;5052376;28;20206;-61
2023/01/19 04:03:46;;;;;;;2.92;2.60;;;20.70;57.00;;;;;;5052920;28;20202;-61
2023/01/19 04:06:34;;;;;;;3.28;2.60;;;20.70;56.90;;;;;;5052124;28;20275;-61
2023/01/19 04:09:23;;;;;;;2.60;2.40;;;20.60;56.80;;;;;;5052127;28;20229;-60
2023/01/19 04:12:11;;;;;;;2.70;2.50;;;20.60;56.80;;;;;;5052098;28;20193;-60
2023/01/19 04:14:59;;;;;;;2.50;2.30;;;20.60;56.70;;;;;;5052246;28;20229;-60
2023/01/19 04:17:47;;;;;;;3.75;2.80;;;20.60;56.70;;;;;;5052046;28;20304;-61
2023/01/19 04:20:35;;;;;;;3.35;3.03;;;20.60;56.60;;;;;;5051748;28;20764;-62
2023/01/19 04:23:24;;;;;;;3.97;3.65;;;20.60;56.80;;;;;;5052495;28;20244;-61
2023/01/19 04:26:13;;;;;;;3.38;2.75;;;20.40;60.70;;;;;;5052118;28;20278;-61
2023/01/19 04:29:01;;;;;;;2.67;2.47;;;20.70;56.80;;;;;;5083933;22;20923;-62
2023/01/19 04:31:49;;;;;;;2.95;2.72;;;20.70;56.80;;;;;;5071387;28;20673;-63
2023/01/19 04:34:37;;;;;;;2.70;2.50;;;20.80;56.80;;;;;;5071168;28;20570;-63
2023/01/19 04:37:25;;;;;;;4.38;3.00;;;20.70;56.80;;;;;;5058306;28;20281;-65
2023/01/19 04:40:14;;;;;;;3.17;2.65;;;20.70;56.80;;;;;;5051966;28;20209;-62
2023/01/19 04:43:03;;;;;;;3.30;2.85;;;20.70;56.60;;;;;;5051444;28;20712;-60
2023/01/19 04:45:51;;;;;;;3.65;2.97;;;20.80;56.70;;;;;;5050779;28;20281;-61
2023/01/19 04:48:40;;;;;;;4.63;2.63;;;20.70;56.60;;;;;;5050799;28;20697;-63
2023/01/19 04:51:29;;;;;;;3.05;2.63;;;20.80;56.50;;;;;;5050883;28;20201;-60
2023/01/19 04:54:17;;;;;;;3.08;2.63;;;20.70;56.40;;;;;;5050985;28;20275;-60
2023/01/19 04:57:05;;;;;;;4.13;3.15;;;20.60;56.30;;;;;;5051435;28;20278;-63
2023/01/19 04:59:55;;;;;;;4.15;3.75;;;20.60;56.40;;;;;;5050317;28;20222;-62
2023/01/19 05:02:44;;;;;;;2.50;2.30;;;20.60;56.40;;;;;;5051155;28;20275;-60
2023/01/19 05:05:33;;;;;;;2.97;2.63;;;20.60;56.40;;;;;;5050691;28;20255;-62
2023/01/19 05:08:21;;;;;;;3.05;2.85;;;20.60;56.60;;;;;;5054191;28;20225;-63
2023/01/19 05:11:09;;;;;;;2.75;2.50;;;20.60;56.50;;;;;;5054955;28;20205;-66
2023/01/19 05:13:57;;;;;;;3.00;2.70;;;20.60;56.60;;;;;;5055422;28;20661;-63
2023/01/19 05:16:46;;;;;;;3.05;2.75;;;20.70;56.50;;;;;;5055109;28;20205;-64
2023/01/19 05:19:34;;;;;;;3.60;2.50;;;20.60;56.50;;;;;;5054376;28;20290;-62
2023/01/19 05:22:23;;;;;;;3.25;3.05;;;20.60;56.30;;;;;;5055095;28;20777;-64
2023/01/19 05:25:11;;;;;;;3.65;2.50;;;20.60;56.30;;;;;;5054882;28;20324;-62
2023/01/19 05:27:59;;;;;;;4.15;2.58;;;20.60;60.50;;;;;;5053916;28;20279;-64
2023/01/19 05:30:49;;;;;;;3.28;2.60;;;20.70;56.60;;;;;;5054524;28;20281;-63
2023/01/19 05:33:38;;;;;;;2.92;2.72;;;20.60;56.30;;;;;;5054976;28;20327;-63
2023/01/19 05:36:26;;;;;;;3.33;2.67;;;20.60;56.20;;;;;;5054297;28;20234;-60
2023/01/19 05:39:15;;;;;;;4.20;2.92;;;20.70;56.30;;;;;;5054399;28;20249;-61
2023/01/19 05:42:03;;;;;;;2.63;2.40;;;20.60;56.20;;;;;;5054533;28;20202;-63
2023/01/19 05:44:51;;;;;;;2.55;2.35;;;20.60;56.30;;;;;;5054558;28;20308;-64
2023/01/19 05:47:39;;;;;;;3.17;2.88;;;20.60;56.40;;;;;;5053485;28;20202;-62
2023/01/19 05:50:29;;;;;;;2.45;2.25;;;20.60;56.30;;;;;;5053666;28;20345;-63
2023/01/19 05:53:17;;;;;;;2.60;2.40;;;20.60;56.30;;;;;;5053535;28;20547;-61
2023/01/19 05:56:08;;;;;;;3.78;2.78;;;20.70;56.50;;;;;;5053351;28;20276;-62
2023/01/19 05:58:56;;;;;;;4.28;2.38;;;20.60;56.20;;;;;;5054287;28;20248;-63
2023/01/19 06:01:44;;;;;;;2.85;2.58;;;20.60;56.10;;;;;;5053877;28;20620;-62
2023/01/19 06:04:32;;;;;;;3.40;3.00;;;20.60;56.20;;;;;;5054165;28;20358;-62
2023/01/19 06:07:21;;;;;;;6.03;3.28;;;20.70;56.40;;;;;;5054088;28;20329;-66
2023/01/19 06:10:12;;;;;;;4.15;2.72;;;20.60;56.30;;;;;;5053454;28;20635;-63
2023/01/19 06:13:00;;;;;;;5.70;3.00;;;20.60;56.30;;;;;;5054167;28;20644;-61
2023/01/19 06:15:48;;;;;;;3.63;2.70;;;20.70;56.30;;;;;;5053206;28;20204;-66
2023/01/19 06:18:36;;;;;;;5.63;2.83;;;20.60;56.20;;;;;;5053840;28;20225;-63
2023/01/19 06:21:24;;;;;;;6.43;3.42;;;20.60;56.10;;;;;;5053146;28;20202;-63
2023/01/19 06:24:14;;;;;;;9.23;4.40;;;20.70;56.30;;;;;;5053606;28;20343;-65
2023/01/19 06:27:02;;;;;;;6.53;3.72;;;20.70;56.10;;;;;;5053815;28;20202;-63
2023/01/19 06:29:50;;;;;;;6.05;3.25;;;20.70;56.10;;;;;;5052813;28;20256;-62
2023/01/19 06:32:38;;;;;;;9.60;4.10;;;20.70;56.00;;;;;;5052710;28;20630;-63
2023/01/19 06:35:26;;;;;;;6.10;2.85;;;20.70;55.90;;;;;;5052954;28;20678;-63
2023/01/19 06:38:16;;;;;;;34.33;8.35;;;20.70;55.90;;;;;;5046167;28;20243;-61
2023/01/19 06:41:06;;;;;;;820.95;131.50;;;20.60;55.80;;;;;;5050851;28;20571;-62
2023/01/19 06:43:54;;;;;;;184.30;27.02;;;20.60;55.70;;;;;;5051182;28;20317;-62
2023/01/19 06:46:42;;;;;;;140.38;17.35;;;20.50;55.70;;;;;;5053533;28;20750;-62
2023/01/19 06:49:30;;;;;;;73.22;11.88;;;20.50;55.90;;;;;;5053028;28;20991;-62
2023/01/19 06:52:19;;;;;;;51.20;11.00;;;20.60;56.30;;;;;;5048896;28;20789;-61
2023/01/19 06:55:09;;;;;;;47.42;8.40;;;20.50;56.30;;;;;;5049302;28;20581;-62
2023/01/19 06:58:00;;;;;;;38.05;8.07;;;20.50;60.40;;;;;;5053726;28;20208;-64
2023/01/19 07:00:49;;;;;;;41.53;7.72;;;20.50;56.40;;;;;;5052499;28;20198;-64
2023/01/19 07:03:37;;;;;;;32.40;6.90;;;20.50;56.20;;;;;;5052844;28;20702;-63
2023/01/19 07:06:25;;;;;;;20.02;6.55;;;20.50;56.20;;;;;;5052987;28;20244;-63
2023/01/19 07:09:15;;;;;;;25.58;7.35;;;20.50;56.30;;;;;;5052616;28;20223;-66
2023/01/19 07:12:05;;;;;;;28.77;5.25;;;20.50;56.20;;;;;;5052897;28;20690;-66
2023/01/19 07:14:54;;;;;;;18.63;4.43;;;20.50;56.20;;;;;;5052927;28;20197;-66
2023/01/19 07:17:42;;;;;;;17.90;4.63;;;;;;;;;;5052686;28;20747;-64
2023/01/19 07:20:31;;;;;;;19.35;5.32;;;20.60;56.10;;;;;;5051397;28;20209;-65
2023/01/19 07:23:19;;;;;;;20.15;4.90;;;20.40;56.10;;;;;;5053321;28;20323;-65
2023/01/19 07:26:07;;;;;;;25.80;4.63;;;20.50;56.30;;;;;;5052447;28;20331;-65
2023/01/19 07:28:55;;;;;;;19.48;4.72;;;20.40;56.20;;;;;;5044728;28;20295;-62
2023/01/19 07:31:44;;;;;;;27.52;4.70;;;20.50;56.60;;;;;;5048149;28;20258;-62
2023/01/19 07:34:33;;;;;;;25.58;4.53;;;20.50;56.30;;;;;;5052342;28;20200;-62
2023/01/19 07:37:21;;;;;;;14.85;5.03;;;20.60;56.30;;;;;;5051695;28;20205;-62
2023/01/19 07:40:10;;;;;;;18.65;5.68;;;20.60;56.20;;;;;;5051737;28;20614;-62
2023/01/19 07:42:58;;;;;;;15.68;5.38;;;20.60;56.10;;;;;;5052986;28;20271;-64
2023/01/19 07:45:47;;;;;;;15.38;4.28;;;20.70;56.20;;;;;;5051910;28;20201;-65
2023/01/19 07:48:36;;;;;;;15.52;4.97;;;20.70;56.10;;;;;;5039990;28;20222;-63
2023/01/19 07:51:26;;;;;;;19.58;4.95;;;20.80;56.20;;;;;;5034109;28;20201;-62
2023/01/19 07:54:14;;;;;;;15.30;4.65;;;20.80;56.30;;;;;;5041260;28;20255;-60
2023/01/19 07:57:02;;;;;;;18.75;4.18;;;20.80;56.10;;;;;;5051247;28;20221;-63
2023/01/19 07:59:50;;;;;;;275.13;36.50;;;20.80;56.00;;;;;;5052029;28;20312;-61
2023/01/19 08:02:39;;;;;;;102.72;16.83;;;20.90;56.00;;;;;;5048153;28;20242;-61
2023/01/19 08:05:29;;;;;;;88.28;14.63;;;20.90;56.00;;;;;;5052688;28;20275;-60
2023/01/19 08:08:17;;;;;;;49.47;9.30;;;20.90;55.90;;;;;;5052560;28;20221;-60
2023/01/19 08:11:07;;;;;;;32.33;7.97;;;20.80;55.80;;;;;;5051475;28;20279;-61
2023/01/19 08:13:55;;;;;;;32.17;5.80;;;20.80;55.90;;;;;;5051680;28;20298;-60
2023/01/19 08:16:43;;;;;;;26.70;5.82;;;20.80;55.90;;;;;;5051779;28;20297;-61
2023/01/19 08:19:31;;;;;;;16.90;5.53;;;20.80;55.90;;;;;;5044173;28;20225;-61
2023/01/19 08:22:20;;;;;;;19.38;5.32;;;20.80;55.90;;;;;;5051089;28;20201;-60
2023/01/19 08:25:09;;;;;;;20.05;5.05;;;20.90;55.80;;;;;;5050770;28;20366;-62
2023/01/19 08:27:57;;;;;;;15.65;4.47;;;20.90;59.10;;;;;;5052042;28;20292;-61
2023/01/19 08:30:52;;;;;;;17.95;5.28;;;20.90;55.90;;;;;;5042307;28;20296;-61
2023/01/19 08:33:41;;;;;;;20.17;5.18;;;20.90;55.90;;;;;;5044678;28;20204;-61
2023/01/19 08:36:29;;;;;;;17.42;4.97;;;20.90;55.90;;;;;;5052028;28;20193;-61
2023/01/19 08:39:19;;;;;;;11.75;4.38;;;20.90;55.90;;;;;;5049769;28;20314;-60
2023/01/19 08:42:07;;;;;;;18.10;5.03;;;21.00;56.30;;;;;;5049439;28;20268;-61
2023/01/19 08:44:55;;;;;;;16.50;4.50;;;20.90;56.10;;;;;;5052511;28;20779;-60
2023/01/19 08:47:45;;;;;;;9.70;4.68;;;21.00;56.30;;;;;;5051628;28;20772;-60
2023/01/19 08:50:34;;;;;;;10.85;4.25;;;20.80;56.40;;;;;;5051251;28;20201;-60
2023/01/19 08:53:23;;;;;;;13.35;4.68;;;20.80;56.60;;;;;;5052305;28;20204;-60
2023/01/19 08:56:13;;;;;;;15.57;5.22;;;20.70;56.90;;;;;;5050800;28;20616;-61
2023/01/19 08:59:01;;;;;;;15.18;4.60;;;20.70;56.90;;;;;;5051321;28;20600;-62
2023/01/19 09:01:57;;;;;;;13.18;5.30;;;20.70;56.90;;;;;;5050765;28;20219;-61
2023/01/19 09:04:45;;;;;;;15.10;5.38;;;20.60;57.00;;;;;;5031080;28;20294;-62
2023/01/19 09:07:33;;;;;;;12.95;4.63;;;20.60;56.80;;;;;;5044000;28;20216;-62
2023/01/19 09:10:22;;;;;;;13.20;4.38;;;20.70;56.80;;;;;;5050218;28;20696;-61
2023/01/19 09:13:12;;;;;;;14.70;5.03;;;20.60;56.80;;;;;;5033369;28;20999;-60
2023/01/19 09:16:02;;;;;;;12.45;4.65;;;20.60;56.90;;;;;;5045022;28;20248;-61
2023/01/19 09:18:50;;;;;;;26.27;7.10;;;20.80;57.00;;;;;;5041742;28;20225;-62
2023/01/19 09:21:38;;;;;;;13.30;5.32;;;20.70;56.80;;;;;;5050778;28;20259;-62
2023/01/19 09:24:27;;;;;;;13.27;4.82;;;20.80;56.70;;;;;;5044670;28;20300;-63
2023/01/19 09:27:15;;;;;;;9.57;4.03;;;20.90;57.00;;;;;;5049027;28;20208;-62
2023/01/19 09:30:09;;;;;;;19.00;4.15;;;20.90;57.20;;;;;;5040420;28;20336;-61
2023/01/19 09:33:01;;;;;;;8.57;4.40;;;20.80;57.10;;;;;;5048403;28;20243;-61
2023/01/19 09:35:50;;;;;;;8.52;4.72;;;20.90;56.90;;;;;;5048463;28;20323;-61
2023/01/19 09:38:38;;;;;;;13.00;3.90;;;20.90;56.80;;;;;;5048590;28;20236;-60
2023/01/19 09:41:27;;;;;;;6.47;3.65;;;21.00;56.80;;;;;;5048606;28;20197;-63
2023/01/19 09:44:19;;;;;;;13.20;4.13;;;21.00;56.80;;;;;;5046996;28;20208;-60
2023/01/19 09:47:15;;;;;;;9.10;3.40;;;21.10;56.60;;;;;;5046220;28;20666;-61
2023/01/19 09:50:06;;;;;;;9.85;4.07;;;21.10;56.60;;;;;;5039773;28;20238;-60
2023/01/19 09:52:56;;;;;;;14.75;5.18;;;21.10;56.50;;;;;;5049497;28;20206;-60
2023/01/19 09:55:45;;;;;;;14.23;3.88;;;21.20;56.50;;;;;;5052414;28;20204;-59
2023/01/19 09:58:33;;;;;;;13.55;4.40;;;21.20;56.40;;;;;;5053856;28;20283;-60
2023/01/19 10:01:34;;;;;;;14.43;3.42;;;21.20;56.40;;;;;;5051870;28;20205;-60
2023/01/19 10:04:34;;;;;;;8.48;2.92;;;21.20;56.30;;;;;;5053536;28;20204;-60
2023/01/19 10:07:32;;;;;;;9.00;3.58;;;21.20;56.20;;;;;;5040111;28;20327;-60
2023/01/19 10:10:22;;;;;;;4.85;3.60;;;21.10;56.30;;;;;;5052803;28;20312;-60
2023/01/19 10:13:21;;;;;;;8.43;3.15;;;21.10;56.40;;;;;;5033849;28;20233;-60
2023/01/19 10:16:24;;;;;;;6.43;3.67;;;21.10;56.40;;;;;;5045865;28;20744;-59
2023/01/19 10:19:21;;;;;;;8.77;3.58;;;21.20;56.70;;;;;;5051724;28;20213;-61
2023/01/19 10:22:20;;;;;;;12.50;3.60;;;21.10;56.80;;;;;;5053466;28;20300;-59
2023/01/19 10:25:17;;;;;;;5.88;3.10;;;21.10;56.80;;;;;;5037858;28;20263;-59
2023/01/19 10:28:05;;;;;;;6.55;3.42;;;21.10;56.80;;;;;;5053589;28;20233;-59
2023/01/19 10:30:55;;;;;;;11.25;2.78;;;21.10;56.60;;;;;;5075732;22;20236;-61
2023/01/19 10:33:43;;;;;;;9.95;3.20;;;21.10;57.20;;;;;;5065095;28;20204;-60
2023/01/19 10:36:36;;;;;;;12.98;2.97;;;21.10;57.30;;;;;;5072160;28;20280;-60
2023/01/19 10:39:25;;;;;;;10.27;2.75;;;21.20;57.50;;;;;;5062495;28;20232;-61
2023/01/19 10:42:16;;;;;;;7.10;3.10;;;21.20;57.50;;;;;;5051307;28;20255;-62
2023/01/19 10:45:15;;;;;;;11.35;3.20;;;21.30;57.60;;;;;;5046522;28;20279;-60
2023/01/19 10:48:07;;;;;;;12.07;3.60;;;21.30;57.50;;;;;;5043366;28;20208;-59
2023/01/19 10:51:02;;;;;;;6.78;3.33;;;21.40;57.50;;;;;;5049427;28;20232;-59
2023/01/19 10:53:59;;;;;;;9.20;3.13;;;21.40;57.20;;;;;;5049667;28;20646;-62
2023/01/19 10:56:55;;;;;;;4.32;3.20;;;21.30;57.20;;;;;;5051562;28;20658;-61
2023/01/19 10:59:49;;;;;;;14.27;4.03;;;21.30;57.40;;;;;;5040040;28;20201;-59
2023/01/19 11:02:49;;;;;;;7.47;2.70;;;21.40;57.30;;;;;;5043817;28;20205;-61
2023/01/19 11:05:40;;;;;;;7.80;3.20;;;21.40;57.20;;;;;;5041115;28;20845;-60
2023/01/19 11:08:30;;;;;;;6.88;2.92;;;21.40;57.20;;;;;;5049559;28;20552;-60
2023/01/19 11:11:20;;;;;;;8.93;3.08;;;21.30;57.10;;;;;;5047711;28;20229;-62
2023/01/19 11:14:12;;;;;;;5.45;3.67;;;21.40;57.30;;;;;;5043140;28;20290;-61
2023/01/19 11:17:01;;;;;;;9.32;2.85;;;21.40;57.20;;;;;;5049942;28;20201;-61
2023/01/19 11:19:57;;;;;;;5.75;2.58;;;21.30;56.70;;;;;;5048089;28;20209;-60
2023/01/19 11:22:45;;;;;;;12.48;3.10;;;21.40;57.10;;;;;;5050550;28;20288;-61
2023/01/19 11:25:36;;;;;;;12.82;3.40;;;21.50;57.40;;;;;;5049225;28;20225;-60
2023/01/19 11:28:28;;;;;;;12.25;3.60;;;21.50;57.50;;;;;;5050620;28;20708;-62
2023/01/19 11:31:32;;;;;;;6.53;3.40;;;21.50;57.30;;;;;;5049905;28;20338;-61
2023/01/19 11:34:30;;;;;;;11.63;3.40;;;21.50;57.40;;;;;;5051911;28;20681;-61
2023/01/19 11:37:31;;;;;;;7.22;3.05;;;21.50;57.40;;;;;;5051646;28;20225;-61
2023/01/19 11:40:20;;;;;;;7.68;3.22;;;21.50;57.40;;;;;;5049474;28;20225;-61
2023/01/19 11:43:10;;;;;;;8.70;2.80;;;21.40;57.20;;;;;;5051065;28;20279;-61
2023/01/19 11:45:59;;;;;;;8.35;2.85;;;21.40;57.30;;;;;;5050822;28;20851;-60
2023/01/19 11:48:56;;;;;;;9.38;2.92;;;21.40;58.00;;;;;;5050728;28;20746;-61
2023/01/19 11:51:51;;;;;;;7.60;2.42;;;21.40;57.50;;;;;;5050746;28;20643;-61
2023/01/19 11:54:46;;;;;;;5.93;3.08;;;21.40;57.60;;;;;;5050958;28;20335;-62
2023/01/19 11:57:34;;;;;;;3.47;2.47;;;21.50;57.50;;;;;;5051231;28;20209;-61
2023/01/19 12:00:28;;;;;;;10.40;3.35;;;21.50;57.50;;;;;;5049250;28;20250;-62
2023/01/19 12:03:21;;;;;;;6.00;2.92;;;21.50;57.30;;;;;;5050571;28;20208;-60
2023/01/19 12:06:14;;;;;;;7.63;3.15;;;21.40;57.30;;;;;;5051032;28;20217;-60
2023/01/19 12:09:08;;;;;;;8.00;2.88;;;21.50;57.30;;;;;;5048902;28;20678;-60
2023/01/19 12:12:02;;;;;;;6.32;2.60;;;21.50;57.30;;;;;;5051072;28;20221;-62
2023/01/19 12:14:56;;;;;;;11.73;2.53;;;21.40;57.10;;;;;;5050737;28;20208;-62
2023/01/19 12:17:48;;;;;;;8.57;3.33;;;21.30;57.20;;;;;;5049341;28;20280;-62
2023/01/19 12:20:40;;;;;;;4.13;2.10;;;21.40;57.10;;;;;;5048893;28;20226;-62
2023/01/19 12:23:41;;;;;;;4.15;2.88;;;21.30;57.10;;;;;;5050694;28;20296;-62
2023/01/19 12:26:35;;;;;;;6.38;3.38;;;21.30;57.10;;;;;;5049439;28;20263;-62
2023/01/19 12:29:27;;;;;;;7.85;2.90;;;21.30;57.10;;;;;;5049846;28;20251;-60
2023/01/19 12:32:31;;;;;;;7.63;3.08;;;21.30;57.10;;;;;;5050027;28;20250;-60
2023/01/19 12:35:54;;;;;;;5.40;2.55;;;21.20;57.00;;;;;;5050888;28;20256;-60
2023/01/19 12:38:47;;;;;;;4.20;2.33;;;21.10;57.00;;;;;;5050077;28;20346;-60
2023/01/19 12:41:36;;;;;;;5.30;2.30;;;21.10;57.10;;;;;;5050229;28;20229;-62
2023/01/19 12:44:32;;;;;;;4.30;2.10;;;21.10;57.30;;;;;;5045921;28;20301;-63
2023/01/19 12:47:23;;;;;;;4.05;3.53;;;21.00;57.50;;;;;;5043141;28;20217;-63
2023/01/19 12:50:17;;;;;;;3.20;2.35;;;21.00;57.50;;;;;;5049403;28;20719;-64
2023/01/19 12:53:17;;;;;;;2.33;1.98;;;21.10;57.70;;;;;;5034692;28;20282;-63
2023/01/19 12:56:08;;;;;;;4.85;2.50;;;21.00;57.60;;;;;;5049037;28;20243;-62
2023/01/19 12:58:57;;;;;;;2.80;2.00;;;21.00;57.90;;;;;;5049104;28;20193;-61
2023/01/19 13:02:23;;;;;;;4.90;2.00;;;21.00;57.90;;;;;;5049219;28;20263;-61
2023/01/19 13:05:17;;;;;;;4.30;2.22;;;21.00;57.80;;;;;;5035177;28;20216;-61
2023/01/19 13:08:23;;;;;;;4.63;2.03;;;21.10;57.80;;;;;;5049505;28;20282;-62
2023/01/19 13:11:19;;;;;;;3.78;2.53;;;21.10;57.80;;;;;;5035210;28;20270;-61
2023/01/19 13:14:34;;;;;;;3.97;2.28;;;21.10;57.90;;;;;;5050191;28;20242;-62
2023/01/19 13:17:35;;;;;;;5.85;1.92;;;21.10;57.80;;;;;;5037195;28;20238;-61
2023/01/19 13:20:27;;;;;;;3.65;2.40;;;21.10;57.70;;;;;;5048526;28;20229;-61
2023/01/19 13:23:21;;;;;;;6.53;2.28;;;21.20;57.80;;;;;;5036018;28;20638;-61
2023/01/19 13:26:15;;;;;;;4.00;2.20;;;21.20;58.20;;;;;;5048376;28;20243;-60
2023/01/19 13:29:08;;;;;;;3.35;2.25;;;21.20;57.80;;;;;;5041136;28;20743;-61
2023/01/19 13:32:01;;;;;;;3.33;2.28;;;21.30;58.10;;;;;;5045545;28;20236;-61
2023/01/19 13:34:56;;;;;;;3.13;1.90;;;21.30;58.00;;;;;;5053580;28;20212;-61
2023/01/19 13:37:45;;;;;;;7.57;2.28;;;21.30;57.90;;;;;;5052981;28;20737;-61
2023/01/19 13:40:38;;;;;;;3.35;1.90;;;21.30;57.90;;;;;;5052372;28;20229;-61
2023/01/19 13:43:31;;;;;;;6.78;1.85;;;21.50;58.00;;;;;;5052410;28;20205;-61
2023/01/19 13:46:21;;;;;;;5.88;2.00;;;21.50;57.90;;;;;;5052071;28;20217;-62
2023/01/19 13:49:17;;;;;;;3.10;2.00;;;21.60;57.80;;;;;;5049201;28;20205;-62
2023/01/19 13:52:07;;;;;;;4.07;2.30;;;21.50;57.60;;;;;;5049553;28;20597;-62
2023/01/19 13:54:57;;;;;;;2.83;2.40;;;21.40;57.50;;;;;;5051684;28;20197;-61
2023/01/19 13:57:51;;;;;;;3.25;2.17;;;21.50;57.70;;;;;;5049642;28;20213;-60
2023/01/19 14:00:40;;;;;;;5.10;1.80;;;21.50;57.80;;;;;;5049991;28;20248;-60
2023/01/19 14:03:29;;;;;;;7.90;2.25;;;21.40;57.60;;;;;;5052801;28;20288;-60
2023/01/19 14:06:32;;;;;;;3.33;2.22;;;21.40;57.70;;;;;;5052345;28;20201;-61
2023/01/19 14:09:21;;;;;;;3.25;1.60;;;21.50;57.80;;;;;;5039052;28;20309;-63
2023/01/19 14:12:13;;;;;;;2.20;2.00;;;21.50;57.60;;;;;;5051989;28;20379;-61
2023/01/19 14:15:03;;;;;;;6.90;2.03;;;21.50;57.70;;;;;;5037488;28;20295;-61
2023/01/19 14:18:08;;;;;;;4.35;1.70;;;21.50;57.70;;;;;;5052534;28;20193;-61
2023/01/19 14:21:00;;;;;;;3.78;1.50;;;21.50;57.80;;;;;;5049146;28;20213;-61
2023/01/19 14:23:50;;;;;;;2.60;1.90;;;21.50;57.80;;;;;;5051219;28;20212;-61
2023/01/19 14:26:45;;;;;;;4.25;2.13;;;21.60;57.90;;;;;;5049765;28;20228;-61
2023/01/19 14:29:34;;;;;;;4.10;2.10;;;21.60;57.70;;;;;;5048139;28;20205;-62
2023/01/19 14:32:26;;;;;;;5.80;2.55;;;21.60;57.70;;;;;;5050321;28;20350;-62
2023/01/19 14:35:24;;;;;;;2.72;2.25;;;21.60;57.60;;;;;;5038060;28;20642;-61
2023/01/19 14:38:14;;;;;;;7.07;2.58;;;21.60;57.50;;;;;;5050065;28;20286;-62
2023/01/19 14:41:03;;;;;;;2.60;2.03;;;21.60;57.20;;;;;;5050116;28;20229;-62
2023/01/19 14:43:51;;;;;;;5.55;1.88;;;21.60;57.30;;;;;;5051589;28;20201;-63
2023/01/19 14:46:45;;;;;;;3.97;2.25;;;21.50;57.10;;;;;;5050376;28;20212;-62
2023/01/19 14:49:37;;;;;;;9.18;1.80;;;21.50;57.30;;;;;;5048422;28;20205;-62
2023/01/19 14:52:28;;;;;;;4.07;2.90;;;21.50;57.20;;;;;;5051654;28;20263;-62
2023/01/19 14:55:20;;;;;;;3.88;2.80;;;21.40;57.10;;;;;;5038239;28;20255;-62
2023/01/19 14:58:10;;;;;;;10.60;2.95;;;21.40;57.30;;;;;;5051296;28;20285;-62
2023/01/19 15:00:59;;;;;;;4.45;2.53;;;21.40;57.40;;;;;;5050127;28;20339;-61